createdAt,value
2022-08-07T00:01:44.041Z,0.30
2022-08-07T00:03:21.646Z,0.30
2022-08-07T00:05:05.806Z,0.30
2022-08-07T00:06:51.246Z,0.30
2022-08-07T00:08:29.647Z,0.30
2022-08-07T00:10:25.640Z,0.30
2022-08-07T00:12:04.663Z,0.30
2022-08-07T00:13:44.706Z,0.40
2022-08-07T00:15:23.679Z,0.30
2022-08-07T00:17:03.665Z,0.30
2022-08-07T00:18:44.864Z,0.30
2022-08-07T00:20:29.703Z,0.32
2022-08-07T00:21:56.221Z,0.40
2022-08-07T00:23:07.324Z,0.30
2022-08-07T00:24:12.087Z,0.30
2022-08-07T00:25:17.295Z,0.30
2022-08-07T00:26:58.926Z,0.30
2022-08-07T00:27:53.215Z,0.30
2022-08-07T00:28:57.776Z,0.30
2022-08-07T00:30:00.505Z,0.30
2022-08-07T00:31:12.638Z,0.30
2022-08-07T00:32:19.104Z,0.40
2022-08-07T00:33:32.885Z,0.40
2022-08-07T00:34:36.650Z,0.40
2022-08-07T00:35:40.741Z,0.38
2022-08-07T00:36:45.588Z,0.30
2022-08-07T00:37:48.701Z,0.40
2022-08-07T00:38:56.062Z,0.40
2022-08-07T00:40:00.585Z,0.40
2022-08-07T00:41:05.362Z,0.30
2022-08-07T00:42:12.850Z,0.35
2022-08-07T00:44:01.016Z,0.30
2022-08-07T00:44:41.382Z,0.30
2022-08-07T00:45:46.575Z,0.40
2022-08-07T00:46:50.633Z,0.30
2022-08-07T00:48:09.049Z,0.30
2022-08-07T00:50:16.746Z,0.40
2022-08-07T00:50:50.816Z,0.40
2022-08-07T00:51:58.180Z,0.35
2022-08-07T00:53:01.489Z,0.40
2022-08-07T00:54:05.793Z,0.40
2022-08-07T00:55:10.644Z,0.40
2022-08-07T00:56:15.663Z,0.30
2022-08-07T00:57:18.871Z,0.30
2022-08-07T00:58:22.830Z,0.30
2022-08-07T00:59:32.430Z,0.40
2022-08-07T01:00:39.670Z,0.38
2022-08-07T01:01:57.991Z,0.30
2022-08-07T01:03:01.991Z,0.30
2022-08-07T01:04:07.365Z,0.25
2022-08-07T01:05:19.351Z,0.30
2022-08-07T01:06:24.469Z,0.30
2022-08-07T01:07:30.986Z,0.30
2022-08-07T01:08:34.387Z,0.30
2022-08-07T01:10:06.300Z,0.30
2022-08-07T01:12:04.807Z,0.30
2022-08-07T01:12:29.963Z,0.30
2022-08-07T01:13:35.376Z,0.40
2022-08-07T01:14:38.463Z,0.30
2022-08-07T01:16:05.077Z,0.32
2022-08-07T01:17:10.303Z,0.30
2022-08-07T01:18:17.037Z,0.30
2022-08-07T01:19:23.693Z,0.30
2022-08-07T01:20:35.176Z,0.30
2022-08-07T01:21:50.057Z,0.20
2022-08-07T01:23:12.087Z,0.30
2022-08-07T01:24:21.208Z,0.30
2022-08-07T01:25:54.328Z,0.30
2022-08-07T01:26:52.249Z,0.30
2022-08-07T01:27:56.732Z,0.30
2022-08-07T01:29:03.678Z,0.30
2022-08-07T01:30:09.495Z,0.30
2022-08-07T01:31:17.732Z,0.30
2022-08-07T01:32:22.977Z,0.30
2022-08-07T01:33:30.106Z,0.35
2022-08-07T01:34:52.938Z,0.32
2022-08-07T01:36:05.914Z,0.30
2022-08-07T01:37:17.241Z,0.30
2022-08-07T01:38:25.067Z,0.30
2022-08-07T01:39:41.430Z,0.40
2022-08-07T01:41:13.204Z,0.40
2022-08-07T01:42:37.647Z,0.30
2022-08-07T01:43:43.224Z,0.30
2022-08-07T01:44:47.827Z,0.30
2022-08-07T01:45:54.623Z,0.40
2022-08-07T01:47:01.232Z,0.30
2022-08-07T01:48:30.428Z,0.40
2022-08-07T01:49:37.906Z,0.30
2022-08-07T01:50:46.014Z,0.30
2022-08-07T01:52:03.611Z,0.40
2022-08-07T01:53:11.750Z,0.40
2022-08-07T01:54:40.015Z,0.30
2022-08-07T01:55:51.479Z,0.30
2022-08-07T01:57:01.965Z,0.30
2022-08-07T01:58:29.554Z,0.38
2022-08-07T01:59:43.678Z,0.40
2022-08-07T02:00:51.337Z,0.40
2022-08-07T02:02:10.526Z,0.32
2022-08-07T02:03:26.433Z,0.40
2022-08-07T02:04:55.651Z,0.40
2022-08-07T02:06:08.941Z,0.40
2022-08-07T02:08:42.537Z,0.35
2022-08-07T02:09:52.614Z,0.30
2022-08-07T02:11:03.267Z,0.30
2022-08-07T02:12:18.103Z,0.40
2022-08-07T02:13:57.197Z,0.40
2022-08-07T02:15:07.059Z,0.30
2022-08-07T02:16:19.653Z,0.50
2022-08-07T02:17:27.897Z,0.40
2022-08-07T02:18:38.413Z,0.32
2022-08-07T02:20:06.918Z,0.40
2022-08-07T02:21:16.128Z,0.40
2022-08-07T02:22:21.897Z,0.40
2022-08-07T02:23:31.279Z,0.40
2022-08-07T02:24:44.596Z,0.40
2022-08-07T02:26:30.758Z,0.35
2022-08-07T02:27:18.248Z,0.35
2022-08-07T02:28:25.377Z,0.40
2022-08-07T02:29:34.370Z,0.30
2022-08-07T02:30:41.087Z,0.40
2022-08-07T02:31:46.470Z,0.30
2022-08-07T02:33:00.468Z,0.30
2022-08-07T02:34:18.033Z,0.40
2022-08-07T02:36:29.878Z,0.30
2022-08-07T02:36:53.258Z,0.40
2022-08-07T02:37:58.134Z,0.40
2022-08-07T02:39:09.508Z,0.30
2022-08-07T02:40:30.958Z,0.32
2022-08-07T02:41:39.000Z,0.30
2022-08-07T02:42:51.223Z,0.40
2022-08-07T02:44:00.414Z,0.30
2022-08-07T02:45:19.888Z,0.30
2022-08-07T02:46:35.667Z,0.30
2022-08-07T02:47:45.560Z,0.40
2022-08-07T02:48:54.871Z,0.40
2022-08-07T02:50:00.230Z,0.40
2022-08-07T02:51:28.822Z,0.40
2022-08-07T02:52:44.250Z,0.35
2022-08-07T02:53:54.354Z,0.40
2022-08-07T02:55:03.683Z,0.40
2022-08-07T02:56:17.582Z,0.30
2022-08-07T02:57:30.865Z,0.30
2022-08-07T02:58:35.765Z,0.30
2022-08-07T02:59:42.271Z,0.40
2022-08-07T03:00:47.674Z,0.30
2022-08-07T03:01:55.453Z,0.30
2022-08-07T03:03:06.022Z,0.30
2022-08-07T03:04:13.855Z,0.40
2022-08-07T03:05:20.845Z,0.30
2022-08-07T03:06:33.079Z,0.40
2022-08-07T03:08:04.565Z,0.40
2022-08-07T03:09:06.027Z,0.40
2022-08-07T03:10:10.435Z,0.32
2022-08-07T03:11:20.178Z,0.40
2022-08-07T03:12:30.987Z,0.40
2022-08-07T03:13:49.976Z,0.30
2022-08-07T03:15:02.554Z,0.40
2022-08-07T03:16:11.453Z,0.40
2022-08-07T03:17:17.739Z,0.30
2022-08-07T03:18:21.222Z,0.30
2022-08-07T03:19:38.682Z,0.30
2022-08-07T03:20:46.790Z,0.30
2022-08-07T03:21:51.926Z,0.30
2022-08-07T03:22:57.730Z,0.30
2022-08-07T03:24:19.218Z,0.40
2022-08-07T03:25:32.310Z,0.40
2022-08-07T03:26:42.857Z,0.40
2022-08-07T03:27:59.608Z,0.40
2022-08-07T03:29:14.747Z,0.32
2022-08-07T03:30:25.955Z,0.30
2022-08-07T03:31:42.779Z,0.40
2022-08-07T03:32:58.797Z,0.30
2022-08-07T03:34:10.540Z,0.30
2022-08-07T03:35:26.625Z,0.40
2022-08-07T03:36:33.641Z,0.40
2022-08-07T03:37:46.147Z,0.30
2022-08-07T03:38:53.536Z,0.40
2022-08-07T03:39:59.534Z,0.40
2022-08-07T03:41:13.360Z,0.30
2022-08-07T03:42:33.643Z,0.40
2022-08-07T03:43:39.537Z,0.40
2022-08-07T03:44:53.505Z,0.40
2022-08-07T03:45:59.775Z,0.40
2022-08-07T03:47:10.922Z,0.47
2022-08-07T03:48:16.130Z,0.40
2022-08-07T03:49:19.171Z,0.50
2022-08-07T03:50:25.033Z,0.52
2022-08-07T03:51:47.314Z,0.40
2022-08-07T03:53:00.690Z,0.55
2022-08-07T03:54:35.128Z,0.50
2022-08-07T03:55:52.754Z,0.50
2022-08-07T03:57:01.450Z,0.50
2022-08-07T03:59:07.201Z,0.57
2022-08-07T03:59:33.541Z,0.50
2022-08-07T04:00:38.669Z,0.43
2022-08-07T04:01:51.467Z,0.50
2022-08-07T04:02:58.310Z,0.50
2022-08-07T04:04:07.602Z,0.45
2022-08-07T04:05:28.836Z,0.50
2022-08-07T04:06:50.776Z,0.40
2022-08-07T04:07:55.867Z,0.43
2022-08-07T04:09:03.798Z,0.43
2022-08-07T04:10:07.400Z,0.50
2022-08-07T04:12:23.581Z,0.50
2022-08-07T04:12:43.516Z,0.50
2022-08-07T04:14:10.680Z,0.52
2022-08-07T04:15:16.099Z,0.60
2022-08-07T04:16:31.607Z,0.50
2022-08-07T04:18:31.204Z,0.50
2022-08-07T04:19:04.190Z,0.60
2022-08-07T04:20:18.107Z,0.60
2022-08-07T04:21:23.001Z,0.60
2022-08-07T04:22:28.873Z,0.50
2022-08-07T04:23:43.212Z,0.60
2022-08-07T04:25:01.329Z,0.50
2022-08-07T04:26:07.321Z,0.50
2022-08-07T04:27:20.246Z,0.50
2022-08-07T04:28:35.609Z,0.50
2022-08-07T04:29:58.372Z,0.50
2022-08-07T04:31:20.290Z,0.50
2022-08-07T04:32:35.719Z,0.50
2022-08-07T04:33:42.054Z,0.52
2022-08-07T04:34:50.450Z,0.57
2022-08-07T04:35:58.068Z,0.50
2022-08-07T04:37:08.102Z,0.50
2022-08-07T04:38:26.162Z,0.50
2022-08-07T04:39:35.590Z,0.50
2022-08-07T04:40:51.316Z,0.50
2022-08-07T04:41:55.836Z,0.50
2022-08-07T04:43:03.849Z,0.50
2022-08-07T04:44:18.878Z,0.50
2022-08-07T04:45:57.407Z,0.50
2022-08-07T04:47:07.758Z,0.50
2022-08-07T04:48:23.977Z,0.50
2022-08-07T04:49:39.208Z,0.50
2022-08-07T04:50:52.846Z,0.50
2022-08-07T04:52:04.560Z,0.50
2022-08-07T04:53:27.635Z,0.50
2022-08-07T04:54:42.315Z,0.60
2022-08-07T04:58:14.419Z,0.50
2022-08-07T04:58:14.586Z,0.50
2022-08-07T05:00:08.982Z,0.45
2022-08-07T05:00:40.530Z,0.50
2022-08-07T05:01:55.563Z,0.50
2022-08-07T05:03:17.233Z,0.50
2022-08-07T05:04:43.866Z,0.60
2022-08-07T05:05:57.376Z,0.50
2022-08-07T05:07:20.628Z,0.50
2022-08-07T05:08:59.760Z,0.60
2022-08-07T05:10:11.835Z,0.50
2022-08-07T05:11:26.301Z,0.50
2022-08-07T05:12:58.625Z,0.57
2022-08-07T05:14:51.992Z,0.52
2022-08-07T05:15:39.881Z,0.60
2022-08-07T05:16:47.601Z,0.50
2022-08-07T05:18:01.557Z,0.50
2022-08-07T05:19:13.281Z,0.50
2022-08-07T05:20:23.715Z,0.50
2022-08-07T05:22:00.713Z,0.50
2022-08-07T05:22:58.020Z,0.50
2022-08-07T05:24:11.235Z,0.50
2022-08-07T05:25:26.296Z,0.50
2022-08-07T05:26:46.231Z,0.50
2022-08-07T05:28:16.014Z,0.50
2022-08-07T05:29:17.765Z,0.50
2022-08-07T05:30:29.937Z,0.50
2022-08-07T05:31:47.517Z,0.50
2022-08-07T05:32:57.225Z,0.50
2022-08-07T05:34:05.835Z,0.50
2022-08-07T05:35:23.487Z,0.40
2022-08-07T05:36:52.758Z,0.43
2022-08-07T05:39:01.077Z,0.50
2022-08-07T05:40:05.054Z,0.50
2022-08-07T05:41:14.035Z,0.50
2022-08-07T05:42:33.753Z,0.50
2022-08-07T05:44:07.646Z,0.50
2022-08-07T05:45:14.403Z,0.47
2022-08-07T05:46:32.483Z,0.43
2022-08-07T05:48:01.331Z,0.50
2022-08-07T05:49:11.632Z,0.40
2022-08-07T05:50:18.676Z,0.40
2022-08-07T05:51:24.256Z,0.50
2022-08-07T05:52:32.453Z,0.40
2022-08-07T05:54:13.522Z,0.40
2022-08-07T05:55:07.062Z,0.50
2022-08-07T05:56:28.359Z,0.47
2022-08-07T05:57:42.063Z,0.50
2022-08-07T05:58:52.606Z,0.40
2022-08-07T06:00:50.775Z,0.50
2022-08-07T06:02:53.526Z,0.50
2022-08-07T06:05:00.314Z,0.40
2022-08-07T06:06:37.045Z,0.50
2022-08-07T06:08:30.780Z,0.40
2022-08-07T06:10:03.702Z,0.40
2022-08-07T06:11:03.920Z,0.40
2022-08-07T06:12:09.405Z,0.40
2022-08-07T06:13:16.428Z,0.40
2022-08-07T06:14:28.491Z,0.40
2022-08-07T06:15:42.408Z,0.40
2022-08-07T06:16:55.928Z,0.40
2022-08-07T06:18:06.577Z,0.47
2022-08-07T06:19:18.026Z,0.40
2022-08-07T06:20:50.773Z,0.30
2022-08-07T06:22:11.735Z,0.40
2022-08-07T06:23:46.145Z,0.40
2022-08-07T06:24:58.432Z,0.40
2022-08-07T06:26:05.491Z,0.40
2022-08-07T06:27:13.229Z,0.40
2022-08-07T06:28:28.719Z,0.40
2022-08-07T06:29:35.066Z,0.40
2022-08-07T06:30:45.951Z,0.30
2022-08-07T06:31:56.214Z,0.40
2022-08-07T06:32:58.989Z,0.38
2022-08-07T06:34:04.249Z,0.40
2022-08-07T06:35:18.084Z,0.40
2022-08-07T06:36:34.981Z,0.40
2022-08-07T06:37:43.425Z,0.40
2022-08-07T06:38:51.232Z,0.40
2022-08-07T06:40:16.702Z,0.40
2022-08-07T06:42:01.896Z,0.30
2022-08-07T06:42:57.170Z,0.30
2022-08-07T06:44:13.113Z,0.40
2022-08-07T06:45:25.086Z,0.40
2022-08-07T06:46:35.495Z,0.40
2022-08-07T06:47:57.011Z,0.35
2022-08-07T06:49:07.374Z,0.30
2022-08-07T06:50:15.703Z,0.40
2022-08-07T06:51:33.535Z,0.30
2022-08-07T06:52:47.723Z,0.40
2022-08-07T06:55:28.411Z,0.30
2022-08-07T06:55:53.513Z,0.32
2022-08-07T06:56:56.634Z,0.40
2022-08-07T06:58:11.200Z,0.30
2022-08-07T07:00:11.913Z,0.40
2022-08-07T07:01:07.239Z,0.30
2022-08-07T07:02:53.539Z,0.38
2022-08-07T07:03:49.405Z,0.30
2022-08-07T07:05:03.510Z,0.40
2022-08-07T07:06:11.308Z,0.40
2022-08-07T07:07:58.214Z,0.30
2022-08-07T07:08:39.692Z,0.30
2022-08-07T07:09:50.816Z,0.40
2022-08-07T07:10:57.243Z,0.35
2022-08-07T07:12:25.615Z,0.40
2022-08-07T07:13:55.701Z,0.40
2022-08-07T07:15:08.661Z,0.30
2022-08-07T07:16:30.015Z,0.30
2022-08-07T07:17:40.160Z,0.30
2022-08-07T07:18:56.416Z,0.40
2022-08-07T07:20:08.478Z,0.40
2022-08-07T07:21:26.942Z,0.30
2022-08-07T07:24:06.627Z,0.40
2022-08-07T07:24:13.925Z,0.40
2022-08-07T07:26:35.786Z,0.40
2022-08-07T07:26:51.889Z,0.40
2022-08-07T07:28:29.513Z,0.30
2022-08-07T07:29:56.712Z,0.40
2022-08-07T07:31:03.358Z,0.40
2022-08-07T07:32:09.714Z,0.30
2022-08-07T07:33:17.489Z,0.40
2022-08-07T07:34:31.902Z,0.40
2022-08-07T07:35:54.199Z,0.40
2022-08-07T07:37:05.593Z,0.40
2022-08-07T07:38:26.736Z,0.30
2022-08-07T07:39:35.816Z,0.40
2022-08-07T07:41:02.373Z,0.40
2022-08-07T07:42:13.217Z,0.30
2022-08-07T07:43:27.670Z,0.30
2022-08-07T07:44:49.703Z,0.40
2022-08-07T07:46:53.165Z,0.35
2022-08-07T07:47:23.591Z,0.30
2022-08-07T07:48:36.038Z,0.40
2022-08-07T07:50:35.611Z,0.30
2022-08-07T07:51:08.600Z,0.30
2022-08-07T07:52:16.123Z,0.30
2022-08-07T07:53:25.812Z,0.40
2022-08-07T07:54:30.979Z,0.35
2022-08-07T07:55:45.810Z,0.40
2022-08-07T07:57:03.072Z,0.40
2022-08-07T07:58:07.538Z,0.40
2022-08-07T07:59:14.164Z,0.38
2022-08-07T08:00:28.983Z,0.30
2022-08-07T08:02:01.700Z,0.30
2022-08-07T08:03:04.965Z,0.40
2022-08-07T08:04:11.961Z,0.30
2022-08-07T08:05:22.269Z,0.30
2022-08-07T08:06:28.835Z,0.40
2022-08-07T08:07:42.517Z,0.40
2022-08-07T08:08:56.977Z,0.40
2022-08-07T08:10:07.560Z,0.35
2022-08-07T08:11:17.994Z,0.40
2022-08-07T08:12:58.955Z,0.40
2022-08-07T08:14:03.415Z,0.30
2022-08-07T08:15:07.230Z,0.40
2022-08-07T08:16:17.129Z,0.40
2022-08-07T08:17:57.269Z,0.40
2022-08-07T08:18:52.521Z,0.40
2022-08-07T08:20:22.491Z,0.40
2022-08-07T08:21:55.529Z,0.40
2022-08-07T08:23:28.028Z,0.40
2022-08-07T08:25:04.486Z,0.40
2022-08-07T08:26:38.210Z,0.45
2022-08-07T08:27:55.962Z,0.45
2022-08-07T08:29:03.305Z,0.40
2022-08-07T08:30:11.383Z,0.40
2022-08-07T08:31:30.302Z,0.38
2022-08-07T08:32:52.762Z,0.40
2022-08-07T08:33:59.410Z,0.35
2022-08-07T08:35:03.510Z,0.30
2022-08-07T08:36:12.556Z,0.40
2022-08-07T08:38:01.485Z,0.30
2022-08-07T08:38:44.873Z,0.30
2022-08-07T08:39:54.870Z,0.40
2022-08-07T08:41:14.404Z,0.40
2022-08-07T08:42:26.059Z,0.30
2022-08-07T08:43:42.147Z,0.30
2022-08-07T08:44:55.413Z,0.30
2022-08-07T08:46:09.298Z,0.30
2022-08-07T08:47:22.223Z,0.30
2022-08-07T08:48:38.468Z,0.40
2022-08-07T08:50:02.772Z,0.40
2022-08-07T08:51:26.055Z,0.32
2022-08-07T08:52:55.756Z,0.40
2022-08-07T08:54:08.146Z,0.40
2022-08-07T08:55:20.767Z,0.40
2022-08-07T08:56:48.763Z,0.40
2022-08-07T08:58:01.110Z,0.40
2022-08-07T08:59:13.824Z,0.40
2022-08-07T09:00:20.982Z,0.40
2022-08-07T09:01:43.791Z,0.40
2022-08-07T09:02:58.552Z,0.30
2022-08-07T09:04:13.351Z,0.30
2022-08-07T09:05:32.061Z,0.30
2022-08-07T09:06:53.308Z,0.30
2022-08-07T09:08:11.446Z,0.30
2022-08-07T09:09:48.148Z,0.40
2022-08-07T09:11:24.848Z,0.40
2022-08-07T09:12:53.502Z,0.30
2022-08-07T09:14:08.676Z,0.40
2022-08-07T09:16:23.873Z,0.30
2022-08-07T09:17:06.262Z,0.40
2022-08-07T09:18:30.843Z,0.32
2022-08-07T09:19:56.510Z,0.30
2022-08-07T09:21:13.753Z,0.40
2022-08-07T09:24:33.192Z,0.38
2022-08-07T09:24:33.424Z,0.30
2022-08-07T09:26:02.801Z,0.30
2022-08-07T09:27:17.882Z,0.30
2022-08-07T09:30:01.672Z,0.30
2022-08-07T09:30:08.511Z,0.40
2022-08-07T09:31:21.345Z,0.30
2022-08-07T09:32:35.659Z,0.32
2022-08-07T09:34:00.070Z,0.30
2022-08-07T09:36:02.953Z,0.30
2022-08-07T09:36:43.018Z,0.30
2022-08-07T09:38:00.338Z,0.30
2022-08-07T09:39:53.611Z,0.30
2022-08-07T09:41:01.458Z,0.30
2022-08-07T09:42:22.704Z,0.30
2022-08-07T09:44:03.281Z,0.30
2022-08-07T09:47:24.105Z,0.30
2022-08-07T09:47:42.689Z,0.40
2022-08-07T09:48:29.735Z,0.40
2022-08-07T09:50:00.887Z,0.35
2022-08-07T09:52:15.569Z,0.32
2022-08-07T09:52:57.800Z,0.40
2022-08-07T09:54:07.104Z,0.40
2022-08-07T09:55:30.000Z,0.30
2022-08-07T09:57:47.112Z,0.30
2022-08-07T09:59:23.386Z,0.40
2022-08-07T10:00:40.980Z,0.30
2022-08-07T10:02:05.392Z,0.30
2022-08-07T10:04:03.213Z,0.32
2022-08-07T10:05:58.937Z,0.38
2022-08-07T10:07:24.521Z,0.40
2022-08-07T10:09:06.090Z,0.40
2022-08-07T10:10:25.033Z,0.30
2022-08-07T10:12:02.101Z,0.35
2022-08-07T10:14:00.181Z,0.40
2022-08-07T10:15:15.522Z,0.22
2022-08-07T10:16:47.604Z,0.30
2022-08-07T10:18:18.122Z,0.30
2022-08-07T10:19:45.393Z,0.30
2022-08-07T10:21:02.596Z,0.30
2022-08-07T10:22:33.701Z,0.30
2022-08-07T10:24:05.881Z,0.30
2022-08-07T10:25:42.236Z,0.40
2022-08-07T10:27:02.379Z,0.25
2022-08-07T10:28:49.433Z,0.30
2022-08-07T10:30:06.257Z,0.30
2022-08-07T10:31:39.066Z,0.30
2022-08-07T10:33:17.966Z,0.40
2022-08-07T10:34:33.805Z,0.30
2022-08-07T10:35:55.141Z,0.40
2022-08-07T10:37:13.953Z,1.20
2022-08-07T10:38:49.444Z,0.40
2022-08-07T10:40:10.092Z,0.20
2022-08-07T10:42:09.143Z,0.28
2022-08-07T10:43:34.415Z,0.30
2022-08-07T10:44:50.197Z,0.30
2022-08-07T10:45:59.142Z,0.30
2022-08-07T10:47:14.007Z,0.32
2022-08-07T10:48:34.983Z,0.30
2022-08-07T10:49:50.748Z,0.30
2022-08-07T10:50:58.095Z,0.20
2022-08-07T10:52:13.676Z,0.20
2022-08-07T10:53:27.279Z,0.20
2022-08-07T10:54:38.603Z,0.28
2022-08-07T10:55:50.269Z,0.28
2022-08-07T10:57:09.577Z,0.28
2022-08-07T10:58:32.279Z,0.30
2022-08-07T10:59:48.710Z,0.20
2022-08-07T11:01:00.779Z,0.30
2022-08-07T11:02:32.909Z,0.30
2022-08-07T11:03:55.081Z,0.30
2022-08-07T11:05:12.642Z,0.30
2022-08-07T11:06:27.425Z,0.30
2022-08-07T11:07:59.182Z,0.22
2022-08-07T11:09:11.512Z,0.20
2022-08-07T11:10:21.246Z,0.30
2022-08-07T11:11:37.517Z,0.30
2022-08-07T11:13:01.602Z,0.30
2022-08-07T11:14:57.367Z,0.30
2022-08-07T11:15:43.097Z,0.28
2022-08-07T11:17:07.357Z,0.30
2022-08-07T11:18:19.291Z,0.30
2022-08-07T11:19:35.795Z,0.40
2022-08-07T11:20:48.798Z,0.30
2022-08-07T11:22:01.715Z,0.40
2022-08-07T11:23:20.738Z,0.30
2022-08-07T11:24:51.902Z,0.30
2022-08-07T11:26:06.377Z,0.30
2022-08-07T11:27:20.656Z,0.32
2022-08-07T11:28:53.392Z,0.30
2022-08-07T11:30:17.992Z,0.30
2022-08-07T11:31:29.057Z,0.30
2022-08-07T11:32:46.094Z,0.30
2022-08-07T11:34:00.303Z,0.30
2022-08-07T11:35:09.445Z,0.30
2022-08-07T11:36:35.653Z,0.28
2022-08-07T11:37:58.356Z,0.20
2022-08-07T11:39:39.545Z,0.40
2022-08-07T11:40:57.591Z,0.30
2022-08-07T11:42:18.646Z,0.30
2022-08-07T11:43:29.526Z,0.25
2022-08-07T11:44:57.612Z,0.30
2022-08-07T11:46:18.448Z,0.30
2022-08-07T11:47:38.834Z,0.20
2022-08-07T11:49:50.090Z,0.20
2022-08-07T11:51:00.452Z,0.40
2022-08-07T11:52:29.131Z,0.30
2022-08-07T11:54:00.594Z,0.28
2022-08-07T11:56:24.891Z,0.30
2022-08-07T11:57:14.088Z,0.30
2022-08-07T11:58:33.304Z,0.28
2022-08-07T12:00:11.410Z,0.25
2022-08-07T12:02:00.998Z,0.20
2022-08-07T12:03:42.217Z,0.20
2022-08-07T12:05:15.344Z,0.28
2022-08-07T12:07:01.048Z,0.30
2022-08-07T12:08:26.031Z,0.30
2022-08-07T12:09:46.150Z,0.30
2022-08-07T12:11:08.284Z,0.30
2022-08-07T12:12:28.714Z,0.20
2022-08-07T12:13:47.513Z,0.30
2022-08-07T12:15:04.358Z,0.20
2022-08-07T12:16:28.874Z,0.30
2022-08-07T12:17:58.548Z,0.30
2022-08-07T12:19:21.534Z,0.28
2022-08-07T12:20:32.271Z,0.40
2022-08-07T12:21:55.811Z,0.30
2022-08-07T12:24:05.920Z,0.30
2022-08-07T12:26:03.131Z,0.22
2022-08-07T12:26:56.274Z,0.30
2022-08-07T12:28:09.769Z,0.30
2022-08-07T12:29:38.447Z,0.30
2022-08-07T12:30:55.857Z,0.20
2022-08-07T12:32:12.675Z,0.20
2022-08-07T12:33:28.074Z,0.30
2022-08-07T12:34:40.990Z,0.30
2022-08-07T12:35:48.222Z,0.30
2022-08-07T12:37:08.573Z,0.30
2022-08-07T12:38:39.128Z,0.20
2022-08-07T12:39:51.317Z,0.22
2022-08-07T12:40:57.546Z,0.30
2022-08-07T12:42:06.943Z,0.30
2022-08-07T12:43:11.765Z,0.30
2022-08-07T12:44:39.839Z,0.28
2022-08-07T12:45:57.821Z,0.20
2022-08-07T12:47:21.353Z,0.30
2022-08-07T12:48:41.377Z,0.30
2022-08-07T12:50:39.081Z,0.20
2022-08-07T12:51:50.871Z,0.20
2022-08-07T12:53:17.401Z,0.20
2022-08-07T12:54:38.646Z,0.30
2022-08-07T12:56:03.129Z,0.20
2022-08-07T12:57:09.723Z,0.22
2022-08-07T12:58:17.389Z,0.30
2022-08-07T12:59:33.175Z,0.20
2022-08-07T13:00:56.817Z,0.30
2022-08-07T13:02:16.891Z,0.30
2022-08-07T13:06:03.001Z,0.40
2022-08-07T13:07:01.960Z,0.30
2022-08-07T13:08:24.861Z,0.40
2022-08-07T13:10:20.526Z,0.35
2022-08-07T13:11:28.522Z,0.40
2022-08-07T13:12:51.210Z,0.30
2022-08-07T13:14:03.193Z,0.38
2022-08-07T13:15:23.637Z,0.30
2022-08-07T13:16:42.417Z,0.40
2022-08-07T13:17:59.508Z,0.30
2022-08-07T13:19:34.958Z,0.40
2022-08-07T13:20:51.073Z,0.43
2022-08-07T13:22:12.753Z,0.30
2022-08-07T13:24:01.217Z,0.38
2022-08-07T13:24:59.182Z,0.40
2022-08-07T13:26:16.068Z,0.40
2022-08-07T13:28:05.826Z,0.40
2022-08-07T13:29:09.032Z,0.40
2022-08-07T13:30:19.449Z,0.40
2022-08-07T13:31:57.266Z,0.40
2022-08-07T13:34:14.920Z,0.45
2022-08-07T13:34:44.790Z,0.40
2022-08-07T13:36:00.320Z,0.40
2022-08-07T13:37:30.645Z,0.40
2022-08-07T13:38:43.168Z,0.40
2022-08-07T13:40:35.611Z,0.43
2022-08-07T13:41:29.231Z,0.30
2022-08-07T13:42:40.727Z,0.30
2022-08-07T13:43:44.699Z,0.40
2022-08-07T13:45:20.694Z,0.30
2022-08-07T13:46:32.780Z,0.30
2022-08-07T13:48:06.241Z,0.40
2022-08-07T13:49:08.898Z,0.30
2022-08-07T13:50:44.816Z,0.30
2022-08-07T13:52:04.455Z,0.35
2022-08-07T13:53:24.455Z,0.30
2022-08-07T13:54:30.616Z,0.30
2022-08-07T13:55:38.367Z,0.30
2022-08-07T13:56:55.528Z,0.30
2022-08-07T13:58:27.999Z,0.40
2022-08-07T13:59:36.186Z,0.30
2022-08-07T14:00:54.171Z,0.30
2022-08-07T14:02:07.792Z,0.30
2022-08-07T14:03:13.829Z,0.38
2022-08-07T14:04:21.494Z,0.30
2022-08-07T14:05:37.401Z,0.40
2022-08-07T14:06:45.811Z,0.35
2022-08-07T14:07:59.482Z,0.30
2022-08-07T14:09:05.104Z,0.30
2022-08-07T14:10:21.658Z,0.40
2022-08-07T14:11:53.948Z,0.30
2022-08-07T14:13:03.939Z,0.30
2022-08-07T14:14:11.567Z,0.30
2022-08-07T14:15:36.199Z,0.30
2022-08-07T14:16:41.832Z,0.30
2022-08-07T14:18:27.780Z,0.30
2022-08-07T14:20:42.278Z,0.30
2022-08-07T14:21:00.437Z,0.30
2022-08-07T14:22:34.484Z,0.30
2022-08-07T14:24:00.200Z,0.30
2022-08-07T14:25:10.871Z,0.30
2022-08-07T14:26:28.399Z,0.22
2022-08-07T14:28:10.608Z,0.25
2022-08-07T14:30:05.870Z,0.30
2022-08-07T14:30:32.961Z,0.25
2022-08-07T14:31:43.291Z,0.30
2022-08-07T14:33:01.781Z,0.30
2022-08-07T14:34:10.123Z,0.38
2022-08-07T14:35:44.975Z,0.30
2022-08-07T14:36:43.944Z,0.40
2022-08-07T14:38:05.717Z,0.30
2022-08-07T14:39:12.528Z,0.40
2022-08-07T14:40:35.642Z,0.30
2022-08-07T14:42:20.568Z,0.30
2022-08-07T14:43:56.001Z,0.20
2022-08-07T14:44:30.649Z,0.22
2022-08-07T14:45:47.172Z,0.30
2022-08-07T14:47:08.475Z,0.30
2022-08-07T14:48:19.884Z,0.30
2022-08-07T14:49:58.153Z,0.30
2022-08-07T14:50:56.309Z,0.30
2022-08-07T14:52:03.380Z,0.30
2022-08-07T14:53:09.991Z,0.30
2022-08-07T14:54:31.145Z,0.30
2022-08-07T14:55:55.353Z,0.30
2022-08-07T14:57:10.905Z,0.30
2022-08-07T14:58:27.324Z,0.38
2022-08-07T15:00:04.749Z,0.30
2022-08-07T15:01:21.907Z,0.30
2022-08-07T15:02:32.914Z,0.30
2022-08-07T15:05:20.502Z,0.30
2022-08-07T15:06:30.919Z,0.30
2022-08-07T15:07:51.341Z,0.40
2022-08-07T15:08:56.292Z,0.30
2022-08-07T15:12:54.664Z,0.30
2022-08-07T15:15:08.451Z,0.30
2022-08-07T15:16:39.068Z,0.30
2022-08-07T15:18:03.242Z,0.30
2022-08-07T15:19:10.454Z,0.40
2022-08-07T15:22:04.068Z,0.40
2022-08-07T15:23:20.435Z,0.30
2022-08-07T15:25:13.906Z,0.30
2022-08-07T15:25:57.755Z,0.40
2022-08-07T15:27:07.025Z,0.30
2022-08-07T15:28:34.865Z,0.30
2022-08-07T15:31:07.967Z,0.32
2022-08-07T15:32:12.628Z,0.40
2022-08-07T15:33:20.754Z,0.30
2022-08-07T15:34:50.493Z,0.32
2022-08-07T15:36:05.110Z,0.40
2022-08-07T15:37:10.033Z,0.30
2022-08-07T15:38:17.663Z,0.40
2022-08-07T15:39:56.284Z,0.40
2022-08-07T15:41:24.074Z,0.30
2022-08-07T15:42:51.862Z,0.30
2022-08-07T15:45:03.921Z,0.40
2022-08-07T15:46:37.183Z,0.30
2022-08-07T15:49:17.929Z,0.30
2022-08-07T15:51:01.584Z,0.30
2022-08-07T15:53:11.434Z,0.40
2022-08-07T15:54:16.647Z,0.30
2022-08-07T15:55:23.208Z,0.30
2022-08-07T15:56:49.113Z,0.30
2022-08-07T15:58:00.163Z,0.40
2022-08-07T16:00:09.604Z,0.30
2022-08-07T16:01:39.121Z,0.35
2022-08-07T16:03:55.840Z,0.30
2022-08-07T16:05:04.530Z,0.30
2022-08-07T16:06:28.353Z,0.30
2022-08-07T16:08:31.349Z,0.30
2022-08-07T16:09:22.809Z,0.30
2022-08-07T16:10:28.689Z,0.30
2022-08-07T16:11:49.479Z,0.40
2022-08-07T16:13:18.070Z,0.32
2022-08-07T16:15:00.205Z,0.30
2022-08-07T16:16:48.269Z,0.40
2022-08-07T16:18:01.889Z,0.40
2022-08-07T16:19:42.910Z,0.38
2022-08-07T16:21:56.777Z,0.38
2022-08-07T16:22:55.827Z,0.40
2022-08-07T16:24:09.099Z,0.40
2022-08-07T16:27:18.083Z,0.40
2022-08-07T16:30:07.534Z,0.30
2022-08-07T16:30:31.115Z,0.40
2022-08-07T16:31:50.691Z,0.30
2022-08-07T16:34:01.652Z,0.30
2022-08-07T16:34:40.625Z,0.40
2022-08-07T16:35:58.825Z,0.40
2022-08-07T16:38:06.274Z,0.30
2022-08-07T16:39:16.635Z,0.30
2022-08-07T16:41:05.612Z,0.40
2022-08-07T16:42:37.889Z,0.40
2022-08-07T16:44:03.929Z,0.40
2022-08-07T16:46:34.710Z,0.30
2022-08-07T16:50:20.763Z,0.40
2022-08-07T16:51:22.691Z,0.40
2022-08-07T16:52:55.620Z,0.30
2022-08-07T16:54:27.837Z,0.38
2022-08-07T16:55:47.494Z,0.40
2022-08-07T16:57:15.406Z,0.45
2022-08-07T16:58:48.019Z,0.30
2022-08-07T17:00:14.933Z,0.40
2022-08-07T17:01:36.442Z,0.40
2022-08-07T17:03:09.913Z,0.40
2022-08-07T17:04:34.284Z,0.40
2022-08-07T17:06:19.636Z,0.40
2022-08-07T17:07:17.687Z,0.40
2022-08-07T17:09:08.861Z,0.40
2022-08-07T17:10:30.067Z,0.40
2022-08-07T17:12:01.553Z,0.30
2022-08-07T17:13:41.356Z,0.40
2022-08-07T17:14:59.828Z,0.40
2022-08-07T17:16:08.157Z,0.30
2022-08-07T17:17:44.255Z,0.30
2022-08-07T17:19:14.575Z,0.40
2022-08-07T17:20:30.871Z,0.40
2022-08-07T17:21:51.486Z,0.35
2022-08-07T17:23:02.192Z,0.40
2022-08-07T17:24:23.798Z,0.30
2022-08-07T17:25:47.695Z,0.40
2022-08-07T17:27:00.193Z,0.30
2022-08-07T17:28:11.874Z,0.40
2022-08-07T17:30:12.683Z,0.30
2022-08-07T17:30:58.510Z,0.40
2022-08-07T17:32:29.989Z,0.40
2022-08-07T17:34:33.468Z,0.30
2022-08-07T17:35:49.664Z,0.40
2022-08-07T17:36:58.337Z,0.40
2022-08-07T17:38:33.878Z,0.40
2022-08-07T17:40:03.009Z,0.50
2022-08-07T17:42:02.700Z,0.30
2022-08-07T17:42:58.255Z,0.40
2022-08-07T17:44:41.487Z,0.40
2022-08-07T17:45:54.918Z,0.30
2022-08-07T17:47:03.716Z,0.30
2022-08-07T17:48:12.960Z,0.40
2022-08-07T17:49:23.867Z,0.30
2022-08-07T17:50:42.390Z,0.30